createdAt,value
2022-08-05T00:00:23.856Z,1008.81
2022-08-05T00:01:28.457Z,1008.79
2022-08-05T00:02:23.895Z,1008.79
2022-08-05T00:03:23.850Z,1008.76
2022-08-05T00:04:23.840Z,1008.76
2022-08-05T00:06:02.523Z,1008.75
2022-08-05T00:06:27.910Z,1008.73
2022-08-05T00:07:58.799Z,1008.72
2022-08-05T00:08:34.555Z,1008.67
2022-08-05T00:09:23.844Z,1008.69
2022-08-05T00:10:27.112Z,1008.68
2022-08-05T00:11:30.386Z,1008.65
2022-08-05T00:12:23.894Z,1008.69
2022-08-05T00:13:39.591Z,1008.74
2022-08-05T00:14:27.644Z,1008.72
2022-08-05T00:15:55.698Z,1008.79
2022-08-05T00:16:36.554Z,1008.87
2022-08-05T00:17:23.855Z,1008.86
2022-08-05T00:18:23.864Z,1008.91
2022-08-05T00:19:25.091Z,1008.94
2022-08-05T00:20:23.864Z,1008.97
2022-08-05T00:21:23.854Z,1008.94
2022-08-05T00:22:23.860Z,1008.87
2022-08-05T00:23:30.849Z,1008.85
2022-08-05T00:24:24.802Z,1008.79
2022-08-05T00:25:23.861Z,1008.77
2022-08-05T00:26:23.865Z,1008.72
2022-08-05T00:27:35.616Z,1008.71
2022-08-05T00:28:29.763Z,1008.65
2022-08-05T00:29:25.201Z,1008.64
2022-08-05T00:30:29.280Z,1008.61
2022-08-05T00:31:53.111Z,1008.59
2022-08-05T00:32:25.845Z,1008.67
2022-08-05T00:34:53.547Z,1008.50
2022-08-05T00:34:55.636Z,1008.56
2022-08-05T00:35:23.877Z,1008.52
2022-08-05T00:37:13.194Z,1008.52
2022-08-05T00:37:24.145Z,1008.52
2022-08-05T00:38:28.934Z,1008.49
2022-08-05T00:39:24.547Z,1008.49
2022-08-05T00:40:26.639Z,1008.49
2022-08-05T00:41:23.878Z,1008.44
2022-08-05T00:42:31.647Z,1008.48
2022-08-05T00:43:23.883Z,1008.50
2022-08-05T00:44:30.656Z,1008.48
2022-08-05T00:45:24.968Z,1008.49
2022-08-05T00:46:42.652Z,1008.47
2022-08-05T00:47:23.891Z,1008.51
2022-08-05T00:48:31.312Z,1008.50
2022-08-05T00:49:23.890Z,1008.47
2022-08-05T00:50:25.379Z,1008.51
2022-08-05T00:51:51.570Z,1008.49
2022-08-05T00:52:28.795Z,1008.51
2022-08-05T00:54:00.739Z,1008.47
2022-08-05T00:54:23.894Z,1008.49
2022-08-05T00:55:34.003Z,1008.45
2022-08-05T00:56:23.908Z,1008.49
2022-08-05T00:57:25.172Z,1008.48
2022-08-05T00:58:27.343Z,1008.53
2022-08-05T00:59:23.894Z,1008.55
2022-08-05T01:00:25.860Z,1008.59
2022-08-05T01:01:24.774Z,1008.61
2022-08-05T01:02:24.313Z,1008.64
2022-08-05T01:03:23.902Z,1008.70
2022-08-05T01:04:26.823Z,1008.71
2022-08-05T01:05:23.908Z,1008.74
2022-08-05T01:06:28.908Z,1008.75
2022-08-05T01:07:31.750Z,1008.80
2022-08-05T01:08:43.408Z,1008.78
2022-08-05T01:09:23.906Z,1008.77
2022-08-05T01:10:25.808Z,1008.78
2022-08-05T01:11:33.314Z,1008.73
2022-08-05T01:12:23.917Z,1008.72
2022-08-05T01:13:27.429Z,1008.73
2022-08-05T01:14:27.205Z,1008.70
2022-08-05T01:15:36.413Z,1008.76
2022-08-05T01:16:26.409Z,1008.71
2022-08-05T01:17:24.185Z,1008.75
2022-08-05T01:18:23.916Z,1008.79
2022-08-05T01:19:36.804Z,1008.80
2022-08-05T01:20:23.918Z,1008.77
2022-08-05T01:21:23.924Z,1008.78
2022-08-05T01:22:27.769Z,1008.84
2022-08-05T01:23:23.931Z,1008.85
2022-08-05T01:24:23.935Z,1008.88
2022-08-05T01:25:23.932Z,1008.93
2022-08-05T01:26:26.317Z,1008.89
2022-08-05T01:27:23.925Z,1008.96
2022-08-05T01:28:24.013Z,1008.99
2022-08-05T01:29:23.939Z,1008.99
2022-08-05T01:30:33.620Z,1008.98
2022-08-05T01:31:23.930Z,1008.97
2022-08-05T01:32:23.941Z,1008.96
2022-08-05T01:33:25.466Z,1008.97
2022-08-05T01:34:26.694Z,1009.01
2022-08-05T01:35:50.756Z,1008.99
2022-08-05T01:36:28.246Z,1009.04
2022-08-05T01:37:25.016Z,1008.96
2022-08-05T01:38:26.993Z,1009.00
2022-08-05T01:39:45.693Z,1008.99
2022-08-05T01:40:27.978Z,1008.98
2022-08-05T01:41:25.756Z,1009.02
2022-08-05T01:42:23.950Z,1009.03
2022-08-05T01:43:24.168Z,1009.05
2022-08-05T01:44:24.735Z,1009.05
2022-08-05T01:45:23.950Z,1009.04
2022-08-05T01:46:42.646Z,1009.08
2022-08-05T01:47:24.256Z,1009.05
2022-08-05T01:48:23.956Z,1009.02
2022-08-05T01:49:24.945Z,1009.08
2022-08-05T01:50:28.606Z,1009.07
2022-08-05T01:51:23.963Z,1009.08
2022-08-05T01:52:23.967Z,1009.11
2022-08-05T01:53:54.837Z,1009.10
2022-08-05T01:54:27.163Z,1009.09
2022-08-05T01:55:23.962Z,1009.08
2022-08-05T01:58:12.973Z,1009.02
2022-08-05T01:58:13.830Z,1009.05
2022-08-05T01:58:40.839Z,1008.98
2022-08-05T01:59:23.973Z,1009.00
2022-08-05T02:00:30.755Z,1009.05
2022-08-05T02:01:25.256Z,1009.07
2022-08-05T02:02:26.022Z,1009.09
2022-08-05T02:03:24.318Z,1009.12
2022-08-05T02:04:23.972Z,1009.16
2022-08-05T02:05:23.979Z,1009.19
2022-08-05T02:06:37.203Z,1009.29
2022-08-05T02:07:24.368Z,1009.36
2022-08-05T02:08:30.941Z,1009.35
2022-08-05T02:09:23.975Z,1009.35
2022-08-05T02:10:28.355Z,1009.45
2022-08-05T02:11:24.114Z,1009.52
2022-08-05T02:12:25.280Z,1009.56
2022-08-05T02:13:23.981Z,1009.60
2022-08-05T02:14:23.987Z,1009.69
2022-08-05T02:15:24.001Z,1009.77
2022-08-05T02:16:23.984Z,1009.82
2022-08-05T02:18:28.766Z,1009.95
2022-08-05T02:18:32.235Z,1009.96
2022-08-05T02:19:23.983Z,1009.92
2022-08-05T02:20:23.989Z,1009.95
2022-08-05T02:21:23.987Z,1009.92
2022-08-05T02:22:26.700Z,1009.95
2022-08-05T02:23:23.980Z,1010.03
2022-08-05T02:24:23.987Z,1010.03
2022-08-05T02:25:23.995Z,1010.09
2022-08-05T02:26:23.999Z,1010.08
2022-08-05T02:27:29.975Z,1010.10
2022-08-05T02:28:29.258Z,1010.17
2022-08-05T02:29:25.995Z,1010.26
2022-08-05T02:30:24.001Z,1010.35
2022-08-05T02:31:23.984Z,1010.43
2022-08-05T02:32:29.209Z,1010.48
2022-08-05T02:33:35.881Z,1010.49
2022-08-05T02:34:23.991Z,1010.53
2022-08-05T02:35:27.937Z,1010.52
2022-08-05T02:36:23.997Z,1010.52
2022-08-05T02:37:24.243Z,1010.55
2022-08-05T02:38:26.975Z,1010.55
2022-08-05T02:39:24.114Z,1010.59
2022-08-05T02:40:24.321Z,1010.62
2022-08-05T02:41:28.651Z,1010.68
2022-08-05T02:42:27.710Z,1010.73
2022-08-05T02:43:24.004Z,1010.77
2022-08-05T02:44:23.994Z,1010.78
2022-08-05T02:45:25.342Z,1010.80
2022-08-05T02:46:27.450Z,1010.75
2022-08-05T02:47:24.429Z,1010.71
2022-08-05T02:48:29.569Z,1010.63
2022-08-05T02:49:23.997Z,1010.52
2022-08-05T02:50:24.000Z,1010.44
2022-08-05T02:51:42.388Z,1010.31
2022-08-05T02:52:29.519Z,1010.28
2022-08-05T02:53:24.012Z,1010.25
2022-08-05T02:54:36.127Z,1010.10
2022-08-05T02:55:52.219Z,1009.92
2022-08-05T02:56:24.012Z,1009.71
2022-08-05T02:58:09.762Z,1009.53
2022-08-05T02:58:26.856Z,1009.36
2022-08-05T02:59:27.124Z,1009.22
2022-08-05T03:00:25.426Z,1009.13
2022-08-05T03:01:24.083Z,1009.18
2022-08-05T03:02:24.014Z,1009.21
2022-08-05T03:03:24.003Z,1009.21
2022-08-05T03:04:24.005Z,1009.36
2022-08-05T03:06:56.095Z,1009.45
2022-08-05T03:06:57.088Z,1009.56
2022-08-05T03:07:40.716Z,1009.71
2022-08-05T03:08:29.516Z,1009.71
2022-08-05T03:09:27.095Z,1009.74
2022-08-05T03:10:24.893Z,1009.75
2022-08-05T03:11:55.382Z,1009.81
2022-08-05T03:12:24.010Z,1009.88
2022-08-05T03:13:27.591Z,1009.91
2022-08-05T03:14:24.004Z,1009.95
2022-08-05T03:15:24.481Z,1009.95
2022-08-05T03:16:24.005Z,1009.97
2022-08-05T03:17:24.224Z,1009.99
2022-08-05T03:18:24.655Z,1009.98
2022-08-05T03:19:34.096Z,1010.00
2022-08-05T03:20:24.525Z,1009.98
2022-08-05T03:21:24.098Z,1010.01
2022-08-05T03:22:32.499Z,1010.03
2022-08-05T03:23:24.253Z,1010.02
2022-08-05T03:24:29.982Z,1010.05
2022-08-05T03:25:33.904Z,1010.08
2022-08-05T03:26:30.409Z,1010.10
2022-08-05T03:27:29.526Z,1010.15
2022-08-05T03:28:24.015Z,1010.21
2022-08-05T03:29:24.018Z,1010.23
2022-08-05T03:30:30.306Z,1010.24
2022-08-05T03:31:55.890Z,1010.26
2022-08-05T03:32:30.695Z,1010.32
2022-08-05T03:33:24.010Z,1010.35
2022-08-05T03:34:24.435Z,1010.42
2022-08-05T03:35:23.997Z,1010.46
2022-08-05T03:36:29.796Z,1010.50
2022-08-05T03:37:24.204Z,1010.48
2022-08-05T03:38:32.687Z,1010.42
2022-08-05T03:39:27.128Z,1010.37
2022-08-05T03:40:31.090Z,1010.27
2022-08-05T03:41:23.997Z,1010.26
2022-08-05T03:42:24.008Z,1010.18
2022-08-05T03:44:08.123Z,1010.08
2022-08-05T03:44:24.011Z,1010.06
2022-08-05T03:45:24.006Z,1010.02
2022-08-05T03:46:24.015Z,1010.05
2022-08-05T03:47:24.521Z,1010.04
2022-08-05T03:48:24.024Z,1010.08
2022-08-05T03:49:24.127Z,1010.02
2022-08-05T03:50:24.016Z,1009.97
2022-08-05T03:52:38.144Z,1009.93
2022-08-05T03:52:38.329Z,1009.96
2022-08-05T03:55:52.963Z,1009.93
2022-08-05T03:55:53.611Z,1009.98
2022-08-05T03:56:04.837Z,1009.98
2022-08-05T03:56:30.562Z,1009.91
2022-08-05T03:57:29.098Z,1009.88
2022-08-05T03:58:28.861Z,1009.83
2022-08-05T03:59:24.614Z,1009.83
2022-08-05T04:00:24.106Z,1009.87
2022-08-05T04:01:24.077Z,1009.91
2022-08-05T04:02:38.218Z,1009.88
2022-08-05T04:03:28.572Z,1009.88
2022-08-05T04:04:26.533Z,1009.83
2022-08-05T04:05:24.023Z,1009.84
2022-08-05T04:06:24.012Z,1009.82
2022-08-05T04:07:24.929Z,1009.83
2022-08-05T04:08:34.640Z,1009.79
2022-08-05T04:09:26.427Z,1009.73
2022-08-05T04:10:24.025Z,1009.73
2022-08-05T04:11:24.015Z,1009.69
2022-08-05T04:12:24.847Z,1009.68
2022-08-05T04:13:24.027Z,1009.63
2022-08-05T04:14:30.623Z,1009.62
2022-08-05T04:15:24.427Z,1009.56
2022-08-05T04:16:25.410Z,1009.52
2022-08-05T04:17:24.256Z,1009.50
2022-08-05T04:18:25.493Z,1009.46
2022-08-05T04:19:24.028Z,1009.40
2022-08-05T04:20:24.041Z,1009.34
2022-08-05T04:22:08.433Z,1009.31
2022-08-05T04:22:24.024Z,1009.25
2022-08-05T04:24:05.618Z,1009.18
2022-08-05T04:24:24.034Z,1009.12
2022-08-05T04:25:38.512Z,1009.09
2022-08-05T04:26:24.036Z,1009.02
2022-08-05T04:27:33.350Z,1008.93
2022-08-05T04:28:30.702Z,1008.83
2022-08-05T04:29:24.038Z,1008.74
2022-08-05T04:30:24.049Z,1008.57
2022-08-05T04:31:24.025Z,1008.47
2022-08-05T04:32:31.152Z,1008.45
2022-08-05T04:34:18.480Z,1008.48
2022-08-05T04:34:33.351Z,1008.57
2022-08-05T04:35:24.028Z,1008.78
2022-08-05T04:36:44.764Z,1009.00
2022-08-05T04:38:00.909Z,1009.17
2022-08-05T04:38:39.147Z,1009.23
2022-08-05T04:39:24.107Z,1009.15
2022-08-05T04:40:24.030Z,1009.01
2022-08-05T04:41:34.148Z,1009.05
2022-08-05T04:42:25.452Z,1009.20
2022-08-05T04:43:24.035Z,1009.35
2022-08-05T04:44:29.598Z,1009.55
2022-08-05T04:45:47.838Z,1009.55
2022-08-05T04:46:28.281Z,1009.55
2022-08-05T04:47:24.242Z,1009.51
2022-08-05T04:48:27.978Z,1009.57
2022-08-05T04:49:24.648Z,1009.59
2022-08-05T04:50:34.313Z,1009.59
2022-08-05T04:51:24.034Z,1009.61
2022-08-05T04:52:24.048Z,1009.63
2022-08-05T04:53:24.041Z,1009.66
2022-08-05T04:54:24.046Z,1009.74
2022-08-05T04:56:14.605Z,1009.75
2022-08-05T04:56:35.051Z,1009.80
2022-08-05T04:57:28.816Z,1009.85
2022-08-05T04:58:24.042Z,1009.86
2022-08-05T04:59:36.636Z,1009.86
2022-08-05T05:00:24.040Z,1009.83
2022-08-05T05:02:05.532Z,1009.84
2022-08-05T05:02:37.254Z,1009.81
2022-08-05T05:03:24.039Z,1009.82
2022-08-05T05:04:24.048Z,1009.87
2022-08-05T05:05:28.056Z,1009.86
2022-08-05T05:06:39.418Z,1009.86
2022-08-05T05:07:29.788Z,1009.88
2022-08-05T05:08:30.294Z,1009.83
2022-08-05T05:09:24.056Z,1009.87
2022-08-05T05:10:24.049Z,1009.88
2022-08-05T05:11:24.055Z,1009.94
2022-08-05T05:12:24.094Z,1009.92
2022-08-05T05:13:24.080Z,1009.96
2022-08-05T05:14:28.179Z,1009.97
2022-08-05T05:15:56.914Z,1009.95
2022-08-05T05:16:24.061Z,1009.91
2022-08-05T05:17:55.371Z,1009.80
2022-08-05T05:18:28.317Z,1009.83
2022-08-05T05:19:26.670Z,1009.75
2022-08-05T05:20:28.699Z,1009.69
2022-08-05T05:21:24.055Z,1009.69
2022-08-05T05:22:26.436Z,1009.70
2022-08-05T05:23:26.686Z,1009.70
2022-08-05T05:24:57.841Z,1009.73
2022-08-05T05:25:32.951Z,1009.76
2022-08-05T05:26:28.043Z,1009.77
2022-08-05T05:27:24.312Z,1009.77
2022-08-05T05:28:24.054Z,1009.74
2022-08-05T05:29:24.059Z,1009.74
2022-08-05T05:30:30.927Z,1009.74
2022-08-05T05:31:24.062Z,1009.78
2022-08-05T05:32:24.062Z,1009.81
2022-08-05T05:33:24.085Z,1009.85
2022-08-05T05:34:24.265Z,1009.86
2022-08-05T05:35:24.061Z,1009.88
2022-08-05T05:36:24.075Z,1009.89
2022-08-05T05:37:29.289Z,1009.83
2022-08-05T05:38:27.425Z,1009.84
2022-08-05T05:39:24.128Z,1009.81
2022-08-05T05:40:26.116Z,1009.77
2022-08-05T05:41:24.082Z,1009.81
2022-08-05T05:42:24.087Z,1009.79
2022-08-05T05:43:56.449Z,1009.80
2022-08-05T05:44:37.533Z,1009.80
2022-08-05T05:45:24.610Z,1009.80
2022-08-05T05:46:24.068Z,1009.84
2022-08-05T05:47:30.269Z,1009.86
2022-08-05T05:48:27.492Z,1009.88
2022-08-05T05:49:24.076Z,1009.94
2022-08-05T05:50:24.081Z,1009.91
2022-08-05T05:51:24.068Z,1009.89
2022-08-05T05:52:28.773Z,1009.93
2022-08-05T05:53:24.083Z,1009.93
2022-08-05T05:54:50.207Z,1009.96
2022-08-05T05:55:24.086Z,1009.97
2022-08-05T05:56:26.206Z,1010.02
2022-08-05T05:57:24.313Z,1010.04
2022-08-05T05:58:31.568Z,1010.13
2022-08-05T05:59:24.076Z,1010.09
2022-08-05T06:00:31.516Z,1010.06
2022-08-05T06:01:24.082Z,1010.05
2022-08-05T06:02:32.675Z,1010.02
2022-08-05T06:03:40.225Z,1010.01
2022-08-05T06:04:24.193Z,1010.01
2022-08-05T06:05:24.137Z,1010.03
2022-08-05T06:06:24.097Z,1010.08
2022-08-05T06:07:24.419Z,1010.12
2022-08-05T06:08:31.676Z,1010.12
2022-08-05T06:09:27.427Z,1010.13
2022-08-05T06:10:24.111Z,1010.11
2022-08-05T06:11:24.096Z,1010.11
2022-08-05T06:12:24.102Z,1010.10
2022-08-05T06:13:24.101Z,1010.10
2022-08-05T06:14:24.099Z,1010.13
2022-08-05T06:15:24.495Z,1010.16
2022-08-05T06:16:30.437Z,1010.13
2022-08-05T06:17:52.415Z,1010.18
2022-08-05T06:18:30.979Z,1010.21
2022-08-05T06:19:33.982Z,1010.27
2022-08-05T06:20:24.115Z,1010.28
2022-08-05T06:21:24.132Z,1010.25
2022-08-05T06:22:24.119Z,1010.24
2022-08-05T06:23:24.125Z,1010.24
2022-08-05T06:24:25.911Z,1010.19
2022-08-05T06:25:59.122Z,1010.26
2022-08-05T06:26:25.155Z,1010.26
2022-08-05T06:28:11.848Z,1010.28
2022-08-05T06:28:24.328Z,1010.31
2022-08-05T06:29:46.437Z,1010.36
2022-08-05T06:30:25.196Z,1010.36
2022-08-05T06:31:32.060Z,1010.37
2022-08-05T06:32:28.678Z,1010.34
2022-08-05T06:34:05.804Z,1010.31
2022-08-05T06:34:24.123Z,1010.29
2022-08-05T06:36:07.777Z,1010.30
2022-08-05T06:36:25.825Z,1010.35
2022-08-05T06:37:56.273Z,1010.40
2022-08-05T06:38:35.627Z,1010.43
2022-08-05T06:39:26.876Z,1010.42
2022-08-05T06:40:27.717Z,1010.39
2022-08-05T06:41:24.123Z,1010.42
2022-08-05T06:42:24.115Z,1010.38
2022-08-05T06:43:58.027Z,1010.37
2022-08-05T06:44:24.126Z,1010.33
2022-08-05T06:45:44.967Z,1010.33
2022-08-05T06:46:29.765Z,1010.35
2022-08-05T06:48:11.971Z,1010.36
2022-08-05T06:48:50.288Z,1010.32
2022-08-05T06:50:01.512Z,1010.34
2022-08-05T06:50:24.110Z,1010.35
2022-08-05T06:51:29.585Z,1010.35
2022-08-05T06:52:37.858Z,1010.37
2022-08-05T06:53:28.466Z,1010.36
2022-08-05T06:54:25.929Z,1010.39
2022-08-05T06:55:24.107Z,1010.41
2022-08-05T06:56:26.492Z,1010.43
2022-08-05T06:58:02.677Z,1010.46
2022-08-05T06:58:35.068Z,1010.49
2022-08-05T06:59:24.112Z,1010.50
2022-08-05T07:00:24.945Z,1010.54
2022-08-05T07:01:24.134Z,1010.56
2022-08-05T07:02:24.115Z,1010.54
2022-08-05T07:03:27.981Z,1010.54
2022-08-05T07:04:24.110Z,1010.54
2022-08-05T07:05:31.900Z,1010.55
2022-08-05T07:06:24.113Z,1010.58
2022-08-05T07:07:35.397Z,1010.59
2022-08-05T07:08:25.186Z,1010.60
2022-08-05T07:09:24.957Z,1010.57
2022-08-05T07:10:24.193Z,1010.56
2022-08-05T07:11:25.506Z,1010.58
2022-08-05T07:12:24.101Z,1010.61
2022-08-05T07:13:58.515Z,1010.65
2022-08-05T07:14:30.124Z,1010.72
2022-08-05T07:15:34.352Z,1010.72
2022-08-05T07:17:56.367Z,1010.71
2022-08-05T07:18:07.013Z,1010.78
2022-08-05T07:18:29.104Z,1010.78
2022-08-05T07:20:05.736Z,1010.81
2022-08-05T07:20:33.433Z,1010.83
2022-08-05T07:21:25.755Z,1010.83
2022-08-05T07:22:28.591Z,1010.86
2022-08-05T07:23:26.396Z,1010.89
2022-08-05T07:24:24.086Z,1010.93
2022-08-05T07:25:56.179Z,1010.93
2022-08-05T07:26:25.015Z,1010.96
2022-08-05T07:27:27.775Z,1010.97
2022-08-05T07:28:24.081Z,1010.96
2022-08-05T07:29:25.529Z,1010.96
2022-08-05T07:30:30.706Z,1010.95
2022-08-05T07:31:40.846Z,1010.93
2022-08-05T07:32:26.039Z,1010.97
2022-08-05T07:33:37.074Z,1010.97
2022-08-05T07:34:28.603Z,1010.99
2022-08-05T07:35:55.986Z,1010.99
2022-08-05T07:36:24.068Z,1011.03
2022-08-05T07:37:24.355Z,1011.03
2022-08-05T07:38:32.862Z,1011.05
2022-08-05T07:39:24.391Z,1011.06
2022-08-05T07:40:31.757Z,1011.07
2022-08-05T07:42:08.235Z,1011.07
2022-08-05T07:42:33.472Z,1011.06
2022-08-05T07:43:24.072Z,1011.07
2022-08-05T07:44:24.060Z,1011.08
2022-08-05T07:45:31.182Z,1011.11
2022-08-05T07:46:25.319Z,1011.10
2022-08-05T07:47:25.840Z,1011.17
2022-08-05T07:49:04.225Z,1011.15
2022-08-05T07:49:24.068Z,1011.15
2022-08-05T07:50:28.806Z,1011.15
2022-08-05T07:51:36.949Z,1011.17
2022-08-05T07:52:24.043Z,1011.13
2022-08-05T07:53:26.828Z,1011.14
2022-08-05T07:54:26.594Z,1011.17
2022-08-05T07:56:04.664Z,1011.22
2022-08-05T07:57:00.286Z,1011.28
2022-08-05T07:57:51.346Z,1011.27
2022-08-05T07:58:54.976Z,1011.29
2022-08-05T07:59:38.312Z,1011.27
2022-08-05T08:00:24.033Z,1011.31
2022-08-05T08:01:24.042Z,1011.27
2022-08-05T08:02:26.554Z,1011.32
2022-08-05T08:03:24.037Z,1011.34
2022-08-05T08:04:34.430Z,1011.34
2022-08-05T08:05:24.058Z,1011.35
2022-08-05T08:06:24.038Z,1011.41
2022-08-05T08:07:24.538Z,1011.41
2022-08-05T08:08:24.041Z,1011.42
2022-08-05T08:09:24.021Z,1011.47
2022-08-05T08:10:24.037Z,1011.48
2022-08-05T08:11:27.623Z,1011.46
2022-08-05T08:12:33.540Z,1011.49
2022-08-05T08:13:29.104Z,1011.53
2022-08-05T08:14:24.011Z,1011.52
2022-08-05T08:16:34.699Z,1011.56
2022-08-05T08:16:35.791Z,1011.57
2022-08-05T08:17:24.359Z,1011.61
2022-08-05T08:18:24.376Z,1011.62
2022-08-05T08:20:10.394Z,1011.65
2022-08-05T08:21:00.186Z,1011.66
2022-08-05T08:21:24.090Z,1011.70
2022-08-05T08:22:24.046Z,1011.69
2022-08-05T08:24:03.591Z,1011.73
2022-08-05T08:24:24.045Z,1011.70
2022-08-05T08:25:26.710Z,1011.74
2022-08-05T08:26:29.624Z,1011.71
2022-08-05T08:27:31.414Z,1011.74
2022-08-05T08:28:36.909Z,1011.73
2022-08-05T08:30:04.032Z,1011.77
2022-08-05T08:30:29.475Z,1011.76
2022-08-05T08:31:23.994Z,1011.86
2022-08-05T08:32:27.814Z,1011.82
2022-08-05T08:33:23.979Z,1011.84
2022-08-05T08:34:30.196Z,1011.85
2022-08-05T08:35:26.748Z,1011.86
2022-08-05T08:36:38.235Z,1011.87
2022-08-05T08:37:27.902Z,1011.94
2022-08-05T08:38:36.166Z,1011.86
2022-08-05T08:39:24.026Z,1011.93
2022-08-05T08:40:23.987Z,1011.91
2022-08-05T08:41:26.095Z,1011.93
2022-08-05T08:42:34.150Z,1011.92
2022-08-05T08:45:18.161Z,1011.90
2022-08-05T08:45:18.194Z,1011.92
2022-08-05T08:45:26.986Z,1011.93
2022-08-05T08:46:23.964Z,1011.96
2022-08-05T08:48:07.112Z,1011.97
2022-08-05T08:48:41.668Z,1011.99
2022-08-05T08:50:13.032Z,1012.01
2022-08-05T08:50:52.873Z,1012.04
2022-08-05T08:52:03.597Z,1012.04
2022-08-05T08:52:24.100Z,1012.09
2022-08-05T08:53:23.954Z,1012.11
2022-08-05T08:54:27.230Z,1012.14
2022-08-05T08:56:01.726Z,1012.15
2022-08-05T08:56:27.127Z,1012.17
2022-08-05T08:57:23.943Z,1012.20
2022-08-05T08:58:37.086Z,1012.23
2022-08-05T08:59:27.681Z,1012.26
2022-08-05T09:00:23.938Z,1012.28
2022-08-05T09:01:24.081Z,1012.28
2022-08-05T09:02:26.718Z,1012.29
2022-08-05T09:03:23.950Z,1012.28
2022-08-05T09:04:23.937Z,1012.33
2022-08-05T09:05:38.248Z,1012.31
2022-08-05T09:06:28.267Z,1012.34
2022-08-05T09:07:28.878Z,1012.31
2022-08-05T09:08:26.640Z,1012.32
2022-08-05T09:09:23.930Z,1012.30
2022-08-05T09:10:27.658Z,1012.34
2022-08-05T09:11:51.202Z,1012.36
2022-08-05T09:12:27.792Z,1012.39
2022-08-05T09:13:23.931Z,1012.32
2022-08-05T09:14:57.714Z,1012.33
2022-08-05T09:15:23.929Z,1012.30
2022-08-05T09:16:26.777Z,1012.32
2022-08-05T09:17:43.109Z,1012.32
2022-08-05T09:18:23.939Z,1012.34
2022-08-05T09:19:23.936Z,1012.35
2022-08-05T09:20:37.635Z,1012.29
2022-08-05T09:22:23.143Z,1012.36
2022-08-05T09:22:31.598Z,1012.38
2022-08-05T09:23:23.934Z,1012.38
2022-08-05T09:24:24.174Z,1012.34
2022-08-05T09:26:01.030Z,1012.36
2022-08-05T09:26:23.932Z,1012.38
2022-08-05T09:28:04.774Z,1012.41
2022-08-05T09:28:23.945Z,1012.38
2022-08-05T09:29:31.057Z,1012.27
2022-08-05T09:30:23.923Z,1012.38
2022-08-05T09:32:40.886Z,1012.35
2022-08-05T09:32:43.005Z,1012.32
2022-08-05T09:33:23.925Z,1012.36
2022-08-05T09:34:26.086Z,1012.36
2022-08-05T09:35:27.028Z,1012.36
2022-08-05T09:36:27.934Z,1012.34
2022-08-05T09:38:16.440Z,1012.34
2022-08-05T09:38:27.550Z,1012.41
2022-08-05T09:39:23.970Z,1012.36
2022-08-05T09:40:23.986Z,1012.44
2022-08-05T09:41:23.922Z,1012.36
2022-08-05T09:42:28.416Z,1012.41
2022-08-05T09:43:23.929Z,1012.40
2022-08-05T09:44:23.930Z,1012.39
2022-08-05T09:46:06.907Z,1012.44
2022-08-05T09:46:27.540Z,1012.49
2022-08-05T09:47:23.921Z,1012.47
2022-08-05T09:48:23.919Z,1012.44
2022-08-05T09:49:23.930Z,1012.49
2022-08-05T09:50:37.577Z,1012.43
2022-08-05T09:51:23.928Z,1012.48
2022-08-05T09:52:24.196Z,1012.56
2022-08-05T09:53:54.045Z,1012.52
2022-08-05T09:54:29.333Z,1012.60
2022-08-05T09:55:56.108Z,1012.57
2022-08-05T09:56:23.924Z,1012.60
2022-08-05T09:57:24.013Z,1012.62
2022-08-05T09:58:23.925Z,1012.69
2022-08-05T09:59:23.927Z,1012.70
2022-08-05T10:00:23.923Z,1012.70
2022-08-05T10:01:31.829Z,1012.67
2022-08-05T10:02:24.160Z,1012.75
2022-08-05T10:03:24.271Z,1012.80
2022-08-05T10:04:29.274Z,1012.80
2022-08-05T10:05:23.926Z,1012.82
2022-08-05T10:06:23.921Z,1012.84
2022-08-05T10:08:10.842Z,1012.81
2022-08-05T10:08:36.137Z,1012.81
2022-08-05T10:09:27.217Z,1012.84
2022-08-05T10:10:28.156Z,1012.82
2022-08-05T10:11:23.916Z,1012.81
2022-08-05T10:12:33.659Z,1012.88
2022-08-05T10:13:24.696Z,1012.88
2022-08-05T10:14:23.915Z,1012.87
2022-08-05T10:15:23.920Z,1012.89
2022-08-05T10:16:23.928Z,1012.87
2022-08-05T10:17:37.908Z,1012.91
2022-08-05T10:18:23.925Z,1012.96
2022-08-05T10:19:59.169Z,1012.98
2022-08-05T10:20:23.920Z,1012.95
2022-08-05T10:21:23.919Z,1012.94
2022-08-05T10:22:29.748Z,1013.03
2022-08-05T10:23:55.109Z,1013.02
2022-08-05T10:24:24.990Z,1013.06
2022-08-05T10:25:23.922Z,1013.05
2022-08-05T10:26:24.212Z,1013.12
2022-08-05T10:27:26.375Z,1013.13
2022-08-05T10:28:29.277Z,1013.20
2022-08-05T10:30:41.349Z,1013.14
2022-08-05T10:31:20.239Z,1013.18
2022-08-05T10:32:53.841Z,1013.22
2022-08-05T10:33:00.860Z,1013.27
2022-08-05T10:33:23.907Z,1013.23
2022-08-05T10:34:25.634Z,1013.27
2022-08-05T10:35:23.909Z,1013.29
2022-08-05T10:36:25.972Z,1013.29
2022-08-05T10:37:26.605Z,1013.33
2022-08-05T10:38:23.912Z,1013.33
2022-08-05T10:39:25.223Z,1013.34
2022-08-05T10:40:28.315Z,1013.43
2022-08-05T10:41:23.905Z,1013.44
2022-08-05T10:42:34.376Z,1013.40
2022-08-05T10:43:23.913Z,1013.40
2022-08-05T10:44:23.909Z,1013.43
2022-08-05T10:45:40.044Z,1013.44
2022-08-05T10:46:24.264Z,1013.42
2022-08-05T10:47:26.574Z,1013.45
2022-08-05T10:48:29.904Z,1013.44
2022-08-05T10:49:26.810Z,1013.58
2022-08-05T10:50:36.155Z,1013.59
2022-08-05T10:51:29.035Z,1013.58
2022-08-05T10:52:24.067Z,1013.65
2022-08-05T10:53:23.902Z,1013.61
2022-08-05T10:54:29.881Z,1013.64
2022-08-05T10:55:23.900Z,1013.65
2022-08-05T10:56:25.892Z,1013.66
2022-08-05T10:57:23.953Z,1013.66
2022-08-05T10:58:23.891Z,1013.65
2022-08-05T11:00:02.765Z,1013.65
2022-08-05T11:00:23.908Z,1013.69
2022-08-05T11:01:28.371Z,1013.72
2022-08-05T11:02:38.070Z,1013.74
2022-08-05T11:03:26.914Z,1013.80
2022-08-05T11:04:26.367Z,1013.75
2022-08-05T11:05:28.774Z,1013.79
2022-08-05T11:06:31.010Z,1013.79
2022-08-05T11:07:32.827Z,1013.82
2022-08-05T11:08:37.047Z,1013.89
2022-08-05T11:09:24.464Z,1013.94
2022-08-05T11:10:27.414Z,1014.00
2022-08-05T11:11:23.895Z,1014.01
2022-08-05T11:12:24.155Z,1014.01
2022-08-05T11:13:23.895Z,1014.04
2022-08-05T11:14:42.843Z,1013.98
2022-08-05T11:15:23.909Z,1014.02
2022-08-05T11:16:33.959Z,1013.99
2022-08-05T11:17:57.515Z,1013.99
2022-08-05T11:18:23.897Z,1014.04
2022-08-05T11:20:11.055Z,1013.99
2022-08-05T11:20:23.889Z,1014.02
2022-08-05T11:21:23.882Z,1014.05
2022-08-05T11:22:23.886Z,1014.05
2022-08-05T11:23:25.330Z,1013.97
2022-08-05T11:24:30.059Z,1014.04
2022-08-05T11:26:05.100Z,1014.00
2022-08-05T11:26:29.223Z,1014.09
2022-08-05T11:27:24.134Z,1014.03
2022-08-05T11:28:23.887Z,1014.02
2022-08-05T11:29:23.889Z,1014.01
2022-08-05T11:30:23.886Z,1014.05
2022-08-05T11:31:54.242Z,1014.03
2022-08-05T11:32:23.889Z,1014.08
2022-08-05T11:33:23.882Z,1014.08
2022-08-05T11:34:26.235Z,1014.07
2022-08-05T11:35:23.876Z,1014.05
2022-08-05T11:36:34.035Z,1014.04
2022-08-05T11:38:26.587Z,1014.05
2022-08-05T11:38:30.973Z,1014.08
2022-08-05T11:39:23.931Z,1014.06
2022-08-05T11:40:23.881Z,1014.01
2022-08-05T11:41:56.506Z,1014.01
2022-08-05T11:42:23.873Z,1014.02
2022-08-05T11:44:06.327Z,1014.04
2022-08-05T11:44:52.991Z,1014.03
2022-08-05T11:46:14.968Z,1014.01
2022-08-05T11:46:32.718Z,1014.08
2022-08-05T11:47:49.854Z,1014.05
2022-08-05T11:48:23.881Z,1014.09
2022-08-05T11:49:23.885Z,1014.11
2022-08-05T11:50:25.237Z,1014.19
2022-08-05T11:51:44.811Z,1014.14
2022-08-05T11:52:23.886Z,1014.09
2022-08-05T11:53:23.876Z,1014.09
2022-08-05T11:54:23.878Z,1014.12
2022-08-05T11:55:23.892Z,1014.02
2022-08-05T11:56:40.792Z,1014.02
2022-08-05T11:57:25.041Z,1014.05
2022-08-05T11:58:23.869Z,1014.06
2022-08-05T11:59:23.868Z,1014.09
2022-08-05T12:00:23.870Z,1014.04
2022-08-05T12:01:23.879Z,1014.07
2022-08-05T12:02:31.275Z,1014.06
2022-08-05T12:03:31.493Z,1014.09
2022-08-05T12:04:23.873Z,1014.09
2022-08-05T12:05:26.016Z,1014.09